CDT,Max TemperatureF,Mean TemperatureF,Min TemperatureF,Max Dew PointF,MeanDew PointF,Min DewpointF,Max Humidity, Mean Humidity, Min Humidity, Max Sea Level PressureIn, Mean Sea Level PressureIn, Min Sea Level PressureIn, Max VisibilityMiles, Mean VisibilityMiles, Min VisibilityMiles, Max Wind SpeedMPH, Mean Wind SpeedMPH, Max Gust SpeedMPH,PrecipitationIn, CloudCover, Events, WindDirDegrees
2012-10-1,66,56,46,50,46,41,93,72,42,29.96,29.91,29.86,10,10,10,9,2,13,0.00,0,,93
2012-10-2,68,59,50,56,50,45,93,71,45,29.93,29.89,29.84,10,10,8,15,7,22,0.00,2,,16
2012-10-3,63,62,60,61,59,56,100,93,81,30.04,29.96,29.90,10,4,1,9,4,12,0.36,8,Rain,210
2012-10-4,77,63,49,59,52,36,90,73,47,30.13,30.04,29.97,10,9,7,21,9,32,0.05,3,Rain,222
2012-10-5,52,46,40,35,29,21,67,51,32,30.17,30.12,30.06,10,10,10,16,8,22,0.00,3,,274
2012-10-6,51,43,34,29,27,23,70,52,44,30.20,30.15,30.08,10,10,10,17,9,23,0.00,4,,298
2012-10-7,51,43,34,30,24,18,67,48,29,30.21,30.18,30.14,10,10,10,16,6,22,0.00,4,,283
2012-10-8,60,45,30,32,28,24,76,50,29,30.17,30.11,30.01,10,10,10,23,10,31,0.00,0,,197
2012-10-9,66,54,42,42,38,32,93,59,34,30.00,29.91,29.81,10,9,4,26,12,36,0.21,4,Rain,226
2012-10-10,51,42,32,40,30,24,89,65,36,30.20,30.09,29.93,10,10,10,21,8,30,0.00,1,,282
2012-10-11,67,50,32,42,33,28,88,56,31,30.26,30.14,30.05,10,10,8,23,10,32,0.05,2,Rain,214
2012-10-12,52,44,35,38,33,27,73,61,50,30.47,30.39,30.30,10,10,10,14,5,18,T,2,,53
2012-10-13,67,54,41,63,52,34,94,86,65,30.28,29.96,29.81,10,7,2,18,10,24,0.10,7,Rain,189
2012-10-14,70,59,48,63,57,44,96,88,73,29.80,29.61,29.43,10,6,2,28,13,37,1.11,8,Rain-Thunderstorm,213
2012-10-15,59,49,39,45,40,36,89,74,42,29.99,29.90,29.79,10,10,9,16,7,24,0.00,4,,316
2012-10-16,69,54,38,51,44,37,93,63,42,29.98,29.75,29.56,10,10,8,26,12,37,0.01,0,,170
2012-10-17,69,62,54,58,53,48,94,76,52,29.56,29.42,29.28,10,8,2,29,14,39,0.30,6,Rain,187
2012-10-18,54,50,45,50,41,36,93,79,54,29.53,29.45,29.33,10,10,6,23,12,31,0.09,7,Rain,205
2012-10-19,52,48,43,43,42,41,93,85,66,29.66,29.51,29.45,10,10,5,16,5,18,0.01,7,Rain,211
2012-10-20,59,49,39,42,40,37,93,75,47,29.96,29.81,29.68,10,10,9,14,5,18,0.00,2,,266
2012-10-21,67,51,34,50,45,35,93,76,49,30.06,30.01,29.98,10,9,6,14,4,18,0.00,0,,169
2012-10-22,64,57,49,63,58,47,100,90,77,29.99,29.94,29.89,10,6,2,17,5,22,0.40,7,Rain-Thunderstorm,183
2012-10-23,70,62,54,65,59,54,100,93,83,29.97,29.92,29.89,10,5,0,12,5,16,0.01,7,Fog-Rain-Thunderstorm,133
2012-10-24,78,68,58,64,61,57,93,77,62,29.95,29.90,29.84,10,10,7,20,11,26,0.00,3,,183
2012-10-25,75,59,43,62,55,39,90,77,62,30.01,29.81,29.68,10,10,7,26,16,36,0.17,5,Rain,224
2012-10-26,50,43,35,33,29,25,78,61,41,30.35,30.29,30.14,10,10,10,22,8,31,0.00,1,,340
2012-10-27,47,40,32,29,27,26,79,62,46,30.36,30.32,30.29,10,10,10,15,9,21,0.00,1,,355
2012-10-28,49,43,36,32,30,26,76,62,51,30.32,30.30,30.29,10,10,10,22,10,29,0.00,4,,2
2012-10-29,50,43,35,34,30,26,82,63,44,30.32,30.25,30.07,10,10,10,22,11,31,0.00,0,,353
2012-10-30,47,43,39,28,26,23,62,53,43,30.05,29.89,29.81,10,10,10,28,16,37,0.00,3,,344
2012-10-31,50,42,33,31,27,20,70,58,49,29.88,29.84,29.81,10,10,10,21,11,26,0.00,5,,325